Time;durP1;ratioP1;P1;durP2;ratioP2;P2;SDS_P1;SDS_P2;PMS_P1;PMS_P2;Temp;Humidity;BMP_temperature;BMP_pressure;BME280_temperature;BME280_humidity;BME280_pressure;Samples;Min_cycle;Max_cycle;Signal;HPM_P1;HPM_P2
2021/12/29 00:00:24;;;;;;;29.55;17.25;;;;;;;5.65;100.00;96863.63;5111453;28;20073;-76
2021/12/29 00:02:50;;;;;;;32.45;18.13;;;;;;;5.66;100.00;96870.69;5096795;28;20415;-74
2021/12/29 00:05:16;;;;;;;29.40;18.00;;;;;;;5.63;100.00;96876.69;5096182;28;20588;-74
2021/12/29 00:07:42;;;;;;;30.88;18.38;;;;;;;5.51;100.00;96885.25;5098307;28;20418;-74
2021/12/29 00:10:09;;;;;;;31.80;19.25;;;;;;;5.50;100.00;96882.81;5111422;27;20031;-74
2021/12/29 00:12:40;;;;;;;28.08;17.23;;;;;;;5.50;100.00;96880.09;5111990;28;20034;-74
2021/12/29 00:15:10;;;;;;;29.15;17.50;;;;;;;5.45;100.00;96874.75;5110556;28;20434;-76
2021/12/29 00:17:39;;;;;;;31.08;17.95;;;;;;;5.46;100.00;96881.75;5112360;28;20031;-74
2021/12/29 00:20:05;;;;;;;29.35;18.13;;;;;;;5.36;100.00;96897.06;5111911;28;20093;-74
2021/12/29 00:22:30;;;;;;;29.13;18.55;;;;;;;5.33;100.00;96897.63;5111925;28;20070;-75
2021/12/29 00:24:55;;;;;;;38.45;19.70;;;;;;;5.30;100.00;96894.69;5113253;28;20104;-74
2021/12/29 00:27:21;;;;;;;31.65;18.77;;;;;;;5.25;100.00;96892.84;5117850;28;20032;-75
2021/12/29 00:29:49;;;;;;;29.35;18.75;;;;;;;5.22;100.00;96888.00;5114150;28;20079;-75
2021/12/29 00:32:14;;;;;;;32.53;19.40;;;;;;;5.17;100.00;96887.25;5112663;28;20035;-74
2021/12/29 00:34:40;;;;;;;33.63;20.02;;;;;;;4.93;100.00;96887.19;5111943;28;20038;-75
2021/12/29 00:37:05;;;;;;;36.67;20.27;;;;;;;4.86;100.00;96884.81;5111535;28;20023;-74
2021/12/29 00:39:31;;;;;;;37.90;21.33;;;;;;;4.70;100.00;96885.22;5111660;28;20107;-74
2021/12/29 00:41:56;;;;;;;35.08;21.08;;;;;;;4.64;100.00;96891.78;5111455;28;20030;-76
2021/12/29 00:44:21;;;;;;;32.92;20.55;;;;;;;4.52;100.00;96888.63;5111461;28;20103;-74
2021/12/29 00:46:52;;;;;;;32.08;20.70;;;;;;;4.43;100.00;96879.50;5111952;28;20035;-75
2021/12/29 00:49:18;;;;;;;33.38;20.60;;;;;;;4.39;100.00;96878.44;5111911;28;20383;-74
2021/12/29 00:51:43;;;;;;;35.83;20.20;;;;;;;4.27;100.00;96876.91;5111091;28;20035;-77
2021/12/29 00:54:09;;;;;;;36.90;22.52;;;;;;;4.16;100.00;96869.97;5111165;28;20051;-75
2021/12/29 00:56:34;;;;;;;35.67;21.75;;;;;;;4.06;100.00;96872.75;5111887;28;20062;-74
2021/12/29 00:59:00;;;;;;;38.92;22.80;;;;;;;4.05;100.00;96873.81;5111714;28;20111;-74
2021/12/29 01:01:29;;;;;;;35.55;21.45;;;;;;;4.05;100.00;96881.94;5112021;28;20020;-75
2021/12/29 01:03:55;;;;;;;35.35;21.75;;;;;;;4.02;100.00;96879.78;5116039;28;20130;-77
2021/12/29 01:06:20;;;;;;;36.17;21.48;;;;;;;3.81;100.00;96880.19;5113951;28;20058;-75
2021/12/29 01:08:46;;;;;;;33.95;20.83;;;;;;;3.82;100.00;96879.13;5110520;28;20016;-75
2021/12/29 01:11:12;;;;;;;39.72;22.42;;;;;;;3.74;100.00;96880.50;5111134;28;20555;-74
2021/12/29 01:13:45;;;;;;;36.65;21.75;;;;;;;3.74;100.00;96880.50;5109423;28;20032;-74
2021/12/29 01:16:36;;;;;;;36.30;21.65;;;;;;;3.75;100.00;96885.63;5111213;28;20032;-75
2021/12/29 01:19:05;;;;;;;38.88;22.90;;;;;;;3.65;100.00;96885.69;5108402;28;20039;-74
2021/12/29 01:21:33;;;;;;;34.30;21.70;;;;;;;3.67;100.00;96888.09;5092458;28;20047;-75
2021/12/29 01:23:58;;;;;;;42.42;23.25;;;;;;;3.70;100.00;96895.66;5094852;28;20039;-74
2021/12/29 01:26:24;;;;;;;43.15;25.02;;;;;;;3.59;100.00;96902.19;5094904;28;20028;-74
2021/12/29 01:28:49;;;;;;;39.38;22.35;;;;;;;3.59;100.00;96892.19;5094731;28;20077;-74
2021/12/29 01:31:15;;;;;;;37.42;22.08;;;;;;;3.55;100.00;96891.13;5094578;28;20038;-75
2021/12/29 01:33:40;;;;;;;39.35;22.80;;;;;;;3.50;100.00;96880.34;5093399;28;20105;-76
2021/12/29 01:36:06;;;;;;;40.53;24.02;;;;;;;3.49;100.00;96889.53;5095813;28;20024;-75
2021/12/29 01:38:31;;;;;;;37.00;22.77;;;;;;;3.53;100.00;96893.31;5094965;28;20028;-74
2021/12/29 01:40:57;;;;;;;40.03;23.50;;;;;;;3.48;100.00;96895.19;5094384;28;20027;-74
2021/12/29 01:43:22;;;;;;;46.90;24.50;;;;;;;3.35;100.00;96888.50;5094136;28;20484;-75
2021/12/29 01:45:48;;;;;;;41.85;24.17;;;;;;;3.29;100.00;96892.28;5093983;28;20373;-75
2021/12/29 01:48:16;;;;;;;43.78;25.50;;;;;;;3.23;100.00;96898.78;5095331;28;20036;-77
2021/12/29 01:50:44;;;;;;;39.90;23.73;;;;;;;3.13;100.00;96898.84;5094954;28;20065;-79
2021/12/29 01:53:13;;;;;;;41.85;23.85;;;;;;;3.10;100.00;96904.78;5094037;28;20210;-76
2021/12/29 01:55:39;;;;;;;42.20;23.98;;;;;;;3.06;100.00;96896.44;5094304;28;20028;-76
2021/12/29 01:58:06;;;;;;;41.45;24.25;;;;;;;3.01;100.00;96901.81;5094080;28;20035;-76
2021/12/29 02:00:34;;;;;;;44.15;25.52;;;;;;;2.96;100.00;96882.94;5093794;28;20028;-76
2021/12/29 02:02:59;;;;;;;43.08;24.83;;;;;;;2.98;100.00;96896.16;5092750;28;20059;-77
2021/12/29 02:05:25;;;;;;;45.35;25.17;;;;;;;3.03;100.00;96899.69;5093900;28;20062;-76
2021/12/29 02:07:51;;;;;;;38.50;23.13;;;;;;;3.06;100.00;96904.53;5092415;28;20111;-79
2021/12/29 02:10:18;;;;;;;37.55;22.45;;;;;;;3.04;100.00;96895.88;5091979;28;20392;-76
2021/12/29 02:12:44;;;;;;;45.42;25.15;;;;;;;2.92;100.00;96889.97;5093301;28;20107;-76
2021/12/29 02:15:11;;;;;;;41.15;24.40;;;;;;;2.91;100.00;96874.84;5093837;28;20038;-75
2021/12/29 02:17:37;;;;;;;40.60;23.42;;;;;;;2.99;100.00;96866.19;5094098;28;20089;-75
2021/12/29 02:20:06;;;;;;;40.63;25.25;;;;;;;2.98;100.00;96869.97;5094018;28;20161;-75
2021/12/29 02:25:18;;;;;;;38.38;23.13;;;;;;;2.82;100.00;96876.47;5093955;28;20110;-77
2021/12/29 02:27:48;;;;;;;42.35;26.17;;;;;;;2.80;100.00;96883.22;5093470;28;20078;-78
2021/12/29 02:30:17;;;;;;;47.70;27.30;;;;;;;2.74;100.00;96895.94;5093988;28;20066;-75
2021/12/29 02:32:44;;;;;;;40.10;24.05;;;;;;;2.76;100.00;96895.66;5095499;28;20051;-78
2021/12/29 02:35:11;;;;;;;43.13;24.90;;;;;;;2.66;100.00;96899.19;5093494;28;20026;-75
2021/12/29 02:37:38;;;;;;;39.33;23.13;;;;;;;2.75;100.00;96897.56;5092994;28;20035;-78
2021/12/29 02:40:05;;;;;;;39.97;24.48;;;;;;;2.78;100.00;96901.59;5092982;28;20027;-76
2021/12/29 02:42:38;;;;;;;49.25;26.65;;;;;;;2.79;100.00;96904.00;5092808;28;20035;-76
2021/12/29 02:45:06;;;;;;;44.00;25.88;;;;;;;2.80;100.00;96889.44;5092737;28;20051;-77
2021/12/29 02:47:31;;;;;;;42.03;25.13;;;;;;;2.84;100.00;96889.72;5092979;28;20417;-75
2021/12/29 02:49:57;;;;;;;41.22;24.40;;;;;;;2.79;100.00;96879.72;5092993;28;20028;-77
2021/12/29 02:52:24;;;;;;;42.72;25.23;;;;;;;2.65;100.00;96881.38;5092710;28;20059;-76
2021/12/29 02:54:50;;;;;;;42.63;25.15;;;;;;;2.73;100.00;96888.91;5092402;28;20086;-75
2021/12/29 02:57:16;;;;;;;41.63;24.65;;;;;;;2.64;100.00;96896.75;5092528;28;20063;-77
2021/12/29 02:59:41;;;;;;;39.00;24.02;;;;;;;2.54;100.00;96895.94;5092130;28;20032;-76
2021/12/29 03:02:07;;;;;;;43.50;24.92;;;;;;;2.44;100.00;96896.75;5091062;28;20446;-75
2021/12/29 03:04:32;;;;;;;44.05;24.55;;;;;;;2.43;100.00;96913.22;5090874;28;20020;-75
2021/12/29 03:06:58;;;;;;;47.55;26.08;;;;;;;2.42;100.00;96923.19;5092843;28;20031;-75
2021/12/29 03:09:24;;;;;;;39.60;23.83;;;;;;;2.42;100.00;96925.06;5092671;28;20048;-76
2021/12/29 03:11:49;;;;;;;45.50;26.40;;;;;;;2.29;100.00;96904.81;5091319;28;20035;-77
2021/12/29 03:14:15;;;;;;;41.95;25.63;;;;;;;2.25;100.00;96911.03;5092685;28;20028;-75
2021/12/29 03:16:41;;;;;;;41.63;24.90;;;;;;;2.27;100.00;96907.00;5099891;28;20028;-79
2021/12/29 03:19:07;;;;;;;46.03;27.48;;;;;;;2.26;100.00;96896.47;5096020;28;20020;-78
2021/12/29 03:21:34;;;;;;;34.92;24.05;;;;;;;2.29;100.00;96893.25;5093436;28;20020;-74
2021/12/29 03:24:04;;;;;;;38.63;23.60;;;;;;;2.21;100.00;96904.56;5092791;28;20127;-75
2021/12/29 03:26:29;;;;;;;40.30;22.52;;;;;;;2.15;100.00;96915.34;5095073;28;20107;-76
2021/12/29 03:28:57;;;;;;;37.38;21.75;;;;;;;2.22;100.00;96903.50;5093271;28;20602;-76
2021/12/29 03:31:22;;;;;;;43.03;25.17;;;;;;;2.14;100.00;96912.91;5091393;28;20469;-74
2021/12/29 03:33:49;;;;;;;40.22;25.40;;;;;;;2.14;100.00;96912.91;5090946;28;20028;-75
2021/12/29 03:36:15;;;;;;;37.70;23.38;;;;;;;2.23;100.00;96915.88;5092560;28;20046;-76
2021/12/29 03:38:44;;;;;;;34.42;22.33;;;;;;;2.16;100.00;96897.28;5094388;28;20032;-74
2021/12/29 03:41:13;;;;;;;39.30;23.08;;;;;;;1.99;100.00;96902.91;5092375;28;20085;-73
2021/12/29 03:43:40;;;;;;;37.42;21.63;;;;;;;1.94;100.00;96910.97;5091462;28;20036;-80
2021/12/29 03:46:08;;;;;;;40.47;23.75;;;;;;;2.03;100.00;96909.41;5092294;28;20043;-75
2021/12/29 03:48:36;;;;;;;36.55;22.52;;;;;;;1.99;100.00;96912.88;5092435;28;20165;-78
2021/12/29 03:51:04;;;;;;;39.85;25.60;;;;;;;2.00;100.00;96896.44;5092650;28;20086;-74
2021/12/29 03:53:30;;;;;;;37.67;24.58;;;;;;;2.03;100.00;96912.09;5091886;28;20100;-76
2021/12/29 03:55:58;;;;;;;39.50;23.27;;;;;;;2.01;100.00;96908.84;5091978;28;20028;-73
2021/12/29 03:58:26;;;;;;;36.35;22.27;;;;;;;2.02;100.00;96910.47;5092014;28;20024;-74
2021/12/29 04:00:56;;;;;;;38.60;22.05;;;;;;;1.99;100.00;96916.38;5092061;28;20039;-74
2021/12/29 04:03:21;;;;;;;38.90;22.17;;;;;;;1.93;100.00;96917.47;5091708;28;20030;-76
2021/12/29 04:05:47;;;;;;;36.08;21.85;;;;;;;1.81;100.00;96916.06;5090315;28;20028;-74
2021/12/29 04:08:13;;;;;;;36.38;22.17;;;;;;;1.93;100.00;96922.84;5091703;28;20028;-75
2021/12/29 04:10:38;;;;;;;38.10;21.65;;;;;;;1.87;100.00;96925.78;5091979;28;20645;-73
2021/12/29 04:13:04;;;;;;;38.38;23.80;;;;;;;1.73;100.00;96933.56;5091509;28;20034;-75
2021/12/29 04:15:30;;;;;;;38.78;23.25;;;;;;;1.72;100.00;96948.13;5091554;28;20032;-81
2021/12/29 04:18:02;;;;;;;37.03;23.05;;;;;;;1.65;100.00;96949.44;5091506;28;20115;-75
2021/12/29 04:23:15;;;;;;;103.30;25.65;;;;;;;1.41;100.00;96957.94;5111493;28;20142;-76
2021/12/29 04:25:45;;;;;;;146.00;25.45;;;;;;;1.39;100.00;96953.88;5106749;28;20032;-74
2021/12/29 04:28:20;;;;;;;221.38;29.08;;;;;;;1.32;100.00;96948.72;5090978;28;20081;-75
2021/12/29 04:30:47;;;;;;;199.50;28.30;;;;;;;1.30;100.00;96956.28;5091002;28;20088;-74
2021/12/29 04:33:13;;;;;;;118.05;27.05;;;;;;;1.33;100.00;96971.09;5089869;28;20031;-76
2021/12/29 04:35:39;;;;;;;78.30;26.80;;;;;;;1.35;100.00;96980.53;5090935;28;20396;-75
2021/12/29 04:38:04;;;;;;;71.55;27.10;;;;;;;1.36;100.00;96992.94;5091035;28;20028;-75
2021/12/29 04:40:30;;;;;;;42.80;24.77;;;;;;;1.50;100.00;96994.06;5089945;28;20464;-75
2021/12/29 04:42:55;;;;;;;49.60;24.90;;;;;;;1.56;100.00;96986.84;5090721;28;20036;-75
2021/12/29 04:45:21;;;;;;;92.25;28.70;;;;;;;1.66;100.00;96994.19;5090609;28;20028;-75
2021/12/29 04:47:48;;;;;;;102.95;26.27;;;;;;;1.59;100.00;96983.63;5090548;28;20028;-75
2021/12/29 04:50:38;;;;;;;147.68;25.55;;;;;;;1.56;100.00;96992.25;5091527;28;20403;-76
2021/12/29 04:53:04;;;;;;;134.00;25.27;;;;;;;1.51;100.00;96989.50;5090232;28;20040;-75
2021/12/29 04:55:30;;;;;;;216.95;31.15;;;;;;;1.50;100.00;96996.75;5092672;28;20051;-75
2021/12/29 04:57:58;;;;;;;103.57;25.15;;;;;;;1.49;100.00;96999.75;5094924;28;20028;-75
2021/12/29 05:00:25;;;;;;;169.88;29.40;;;;;;;1.58;100.00;97006.25;5093379;28;20028;-77
2021/12/29 05:02:52;;;;;;;92.50;26.17;;;;;;;1.71;100.00;97013.88;5093255;28;20055;-76
2021/12/29 05:05:22;;;;;;;84.65;23.58;;;;;;;1.66;100.00;97021.91;5094860;28;20035;-75
2021/12/29 05:10:33;;;;;;;105.20;24.77;;;;;;;1.67;100.00;97020.84;5095045;28;20042;-76
2021/12/29 05:12:58;;;;;;;48.75;21.38;;;;;;;1.75;100.00;97023.06;5094487;28;20069;-75
2021/12/29 05:15:23;;;;;;;72.97;22.65;;;;;;;1.77;100.00;97026.28;5108485;28;20454;-75
2021/12/29 05:17:52;;;;;;;79.20;21.35;;;;;;;1.75;100.00;97025.75;5115313;28;20030;-74
2021/12/29 05:20:17;;;;;;;94.30;22.52;;;;;;;1.64;100.00;97018.69;5115342;28;20027;-76
2021/12/29 05:22:43;;;;;;;125.22;25.42;;;;;;;1.66;100.00;97021.13;5114940;28;20024;-74
2021/12/29 05:25:08;;;;;;;70.18;23.58;;;;;;;1.63;100.00;97019.75;5114799;28;20020;-73
2021/12/29 05:27:34;;;;;;;77.65;24.63;;;;;;;1.63;100.00;97025.94;5115180;28;20464;-75
2021/12/29 05:30:02;;;;;;;138.43;34.35;;;;;;;1.56;100.00;97024.56;5116212;28;20487;-74
2021/12/29 05:32:30;;;;;;;145.73;26.45;;;;;;;1.45;100.00;97023.69;5114627;28;20068;-75
2021/12/29 05:34:56;;;;;;;84.63;25.02;;;;;;;1.51;100.00;97033.41;5114652;28;20084;-78
2021/12/29 05:37:22;;;;;;;61.28;21.58;;;;;;;1.47;100.00;97028.84;5114391;28;20054;-74
2021/12/29 05:39:47;;;;;;;152.02;27.85;;;;;;;1.45;100.00;97025.56;5114562;28;20531;-76
2021/12/29 05:42:13;;;;;;;109.00;25.20;;;;;;;1.51;100.00;97033.41;5114418;28;20734;-74
2021/12/29 05:44:38;;;;;;;300.00;30.48;;;;;;;1.49;100.00;97032.06;5112907;28;20043;-76
2021/12/29 05:47:04;;;;;;;197.30;24.77;;;;;;;1.45;100.00;97033.66;5114300;28;20500;-77
2021/12/29 05:49:29;;;;;;;131.93;23.15;;;;;;;1.41;100.00;97035.25;5114912;28;20379;-74
2021/12/29 05:51:54;;;;;;;176.10;25.55;;;;;;;1.38;100.00;97041.16;5115108;28;20066;-76
2021/12/29 05:54:20;;;;;;;185.45;25.33;;;;;;;1.47;100.00;97053.06;5115499;28;20132;-77
2021/12/29 05:56:45;;;;;;;323.25;28.60;;;;;;;1.39;100.00;97054.38;5118391;28;20031;-77
2021/12/29 05:59:11;;;;;;;67.13;22.05;;;;;;;1.43;100.00;97051.97;5119681;28;20076;-77
2021/12/29 06:01:36;;;;;;;179.07;25.58;;;;;;;1.52;100.00;97050.41;5114547;28;20475;-77
2021/12/29 06:04:02;;;;;;;133.05;26.17;;;;;;;1.41;100.00;97062.97;5114201;28;20028;-76
2021/12/29 06:06:28;;;;;;;114.53;22.83;;;;;;;1.45;100.00;97063.28;5112167;28;20089;-74
2021/12/29 06:08:53;;;;;;;104.20;21.55;;;;;;;1.51;100.00;97064.94;5114090;28;20478;-76
2021/12/29 06:11:19;;;;;;;201.48;23.02;;;;;;;1.53;100.00;97066.31;5113870;28;20027;-76
2021/12/29 06:13:44;;;;;;;130.45;21.98;;;;;;;1.58;100.00;97065.53;5113443;28;20038;-78
2021/12/29 06:16:09;;;;;;;97.55;22.52;;;;;;;1.60;100.00;97066.06;5093378;28;20055;-76
2021/12/29 06:18:35;;;;;;;109.10;24.45;;;;;;;1.50;100.00;97063.34;5093684;28;20528;-76
2021/12/29 06:21:00;;;;;;;222.88;25.88;;;;;;;1.53;100.00;97057.44;5093272;28;20047;-76
2021/12/29 06:23:25;;;;;;;101.28;22.20;;;;;;;1.49;100.00;97050.94;5095822;28;20028;-75
2021/12/29 06:25:51;;;;;;;176.75;23.98;;;;;;;1.31;100.00;97059.44;5092431;28;20031;-75
2021/12/29 06:28:16;;;;;;;245.43;25.98;;;;;;;1.37;100.00;97074.56;5093399;28;20028;-76
2021/12/29 06:30:42;;;;;;;259.58;30.20;;;;;;;1.48;100.00;97070.84;5093147;28;20016;-77
2021/12/29 06:33:07;;;;;;;44.83;20.02;;;;;;;1.55;100.00;97084.91;5109573;28;20054;-75
2021/12/29 06:35:33;;;;;;;56.67;21.15;;;;;;;1.56;100.00;97084.66;5112412;28;20051;-76
2021/12/29 06:37:58;;;;;;;109.25;20.48;;;;;;;1.62;100.00;97101.66;5113381;28;20101;-77
2021/12/29 06:40:24;;;;;;;98.00;20.17;;;;;;;1.53;100.00;97103.22;5112920;28;20107;-75
2021/12/29 06:42:49;;;;;;;103.80;24.23;;;;;;;1.40;100.00;97106.34;5113270;28;20055;-75
2021/12/29 06:45:15;;;;;;;61.67;21.75;;;;;;;1.39;100.00;97105.53;5113824;28;20506;-74
2021/12/29 06:47:41;;;;;;;66.07;22.80;;;;;;;1.45;100.00;97114.47;5113257;28;20024;-75
2021/12/29 06:50:07;;;;;;;81.57;21.33;;;;;;;1.31;100.00;97111.41;5113640;28;20027;-74
2021/12/29 06:52:33;;;;;;;59.10;20.55;;;;;;;1.40;100.00;97111.75;5113261;28;20387;-74
2021/12/29 06:54:58;;;;;;;52.75;19.23;;;;;;;1.34;100.00;97102.81;5112878;28;20044;-75
2021/12/29 06:57:24;;;;;;;69.50;17.98;;;;;;;1.38;100.00;97113.91;5111776;28;20118;-74
2021/12/29 06:59:49;;;;;;;55.45;17.05;;;;;;;1.31;100.00;97124.06;5113473;28;20077;-74
2021/12/29 07:02:15;;;;;;;40.08;16.40;;;;;;;1.41;100.00;97118.78;5112180;28;20090;-75
2021/12/29 07:04:41;;;;;;;36.05;16.88;;;;;;;1.33;100.00;97116.53;5112834;28;20027;-75
2021/12/29 07:07:07;;;;;;;86.05;17.00;;;;;;;1.29;100.00;97118.09;5113263;28;20101;-77
2021/12/29 07:09:33;;;;;;;36.30;16.70;;;;;;;1.37;100.00;97115.78;5113189;28;20368;-75
2021/12/29 07:11:58;;;;;;;59.53;17.10;;;;;;;1.31;100.00;97119.50;5113256;28;20016;-75
2021/12/29 07:14:24;;;;;;;58.53;16.83;;;;;;;1.38;100.00;97111.19;5112570;28;20031;-76
2021/12/29 07:16:50;;;;;;;47.80;16.08;;;;;;;1.55;100.00;97125.31;5113189;28;20511;-76
2021/12/29 07:19:17;;;;;;;37.92;16.70;;;;;;;1.57;100.00;97124.00;5115664;28;20028;-75
2021/12/29 07:21:43;;;;;;;56.67;18.58;;;;;;;1.62;100.00;97128.63;5111719;28;20024;-76
2021/12/29 07:24:10;;;;;;;42.33;17.92;;;;;;;1.62;100.00;97128.63;5112684;28;20057;-76
2021/12/29 07:26:35;;;;;;;31.85;16.88;;;;;;;1.58;100.00;97125.63;5112693;28;20028;-75
2021/12/29 07:29:03;;;;;;;45.58;17.05;;;;;;;1.76;100.00;97115.50;5112961;28;20134;-75
2021/12/29 07:31:29;;;;;;;50.17;17.08;;;;;;;1.87;100.00;97122.59;5112830;28;20028;-75
2021/12/29 07:33:55;;;;;;;39.80;18.33;;;;;;;1.78;100.00;97127.66;5112545;28;20031;-76
2021/12/29 07:36:20;;;;;;;30.95;17.85;;;;;;;1.86;100.00;97132.56;5112558;28;20024;-75
2021/12/29 07:38:49;;;;;;;39.08;18.40;;;;;;;1.95;100.00;97130.16;5112954;28;20058;-74
2021/12/29 07:41:15;;;;;;;33.20;18.25;;;;;;;2.03;100.00;97135.91;5112936;28;20127;-75
2021/12/29 07:43:41;;;;;;;32.03;18.20;;;;;;;2.10;100.00;97139.16;5096522;28;20032;-77
2021/12/29 07:46:06;;;;;;;36.78;17.27;;;;;;;2.16;100.00;97132.72;5117284;28;20383;-84
2021/12/29 07:48:33;;;;;;;35.63;17.02;;;;;;;2.14;100.00;97134.06;5109763;28;20444;-82
2021/12/29 07:51:02;;;;;;;29.00;16.35;;;;;;;2.17;100.00;97137.03;5093962;28;20040;-79
2021/12/29 07:53:28;;;;;;;28.90;16.20;;;;;;;2.20;100.00;97149.19;5091637;28;20388;-84
2021/12/29 07:55:53;;;;;;;25.77;15.30;;;;;;;2.21;100.00;97147.31;5093086;28;20039;-82
2021/12/29 07:58:19;;;;;;;32.28;16.27;;;;;;;2.07;100.00;97133.47;5092907;28;20472;-81
2021/12/29 08:00:45;;;;;;;27.10;15.43;;;;;;;2.16;100.00;97146.19;5101632;28;20128;-77
2021/12/29 08:03:12;;;;;;;28.48;16.83;;;;;;;2.22;100.00;97151.63;5112536;28;20039;-76
2021/12/29 08:05:38;;;;;;;29.23;17.52;;;;;;;2.29;100.00;97157.63;5112771;28;20384;-75
2021/12/29 08:08:05;;;;;;;26.27;15.73;;;;;;;2.34;100.00;97177.34;5117230;28;20027;-77
2021/12/29 08:10:32;;;;;;;29.20;15.32;;;;;;;2.43;100.00;97178.44;5119075;28;20393;-74
2021/12/29 08:12:57;;;;;;;24.17;15.35;;;;;;;2.38;100.00;97183.03;5115101;28;20096;-79
2021/12/29 08:15:23;;;;;;;25.15;13.32;;;;;;;2.46;100.00;97191.41;5112593;28;20491;-75
2021/12/29 08:17:48;;;;;;;26.67;14.25;;;;;;;2.37;100.00;97193.00;5111836;28;20121;-77
2021/12/29 08:20:14;;;;;;;29.63;14.85;;;;;;;2.46;100.00;97190.59;5112002;28;20498;-75
2021/12/29 08:22:39;;;;;;;38.97;14.57;;;;;;;2.46;100.00;97196.81;5111161;28;20120;-74
2021/12/29 08:25:06;;;;;;;32.05;15.82;;;;;;;2.39;100.00;97196.22;5111392;28;20066;-74
2021/12/29 08:27:33;;;;;;;29.15;15.63;;;;;;;2.48;100.00;97204.63;5111376;28;20039;-76
2021/12/29 08:29:59;;;;;;;33.95;16.08;;;;;;;2.52;100.00;97189.56;5110981;28;20063;-75
2021/12/29 08:32:26;;;;;;;29.50;14.63;;;;;;;2.43;100.00;97193.81;5111461;28;20038;-76
2021/12/29 08:34:52;;;;;;;36.80;15.48;;;;;;;2.51;100.00;97190.63;5111333;28;20040;-77
2021/12/29 08:37:19;;;;;;;36.30;14.93;;;;;;;2.70;100.00;97202.59;5101834;28;20437;-75
2021/12/29 08:39:44;;;;;;;34.60;14.23;;;;;;;2.70;100.00;97187.19;5090767;28;20035;-75
2021/12/29 08:42:11;;;;;;;48.65;18.85;;;;;;;2.77;100.00;97189.66;5090730;28;20031;-77
2021/12/29 08:44:36;;;;;;;48.00;18.15;;;;;;;2.94;100.00;97202.97;5090786;28;20536;-77
2021/12/29 08:47:02;;;;;;;49.50;17.38;;;;;;;2.97;100.00;97207.81;5090864;28;20032;-76
2021/12/29 08:49:28;;;;;;;45.78;17.67;;;;;;;3.06;100.00;97212.44;5089955;28;20067;-77
2021/12/29 08:51:53;;;;;;;56.58;17.40;;;;;;;3.04;100.00;97214.59;5090951;28;20084;-76
2021/12/29 08:54:19;;;;;;;112.68;20.27;;;;;;;3.02;100.00;97218.63;5090596;28;20436;-76
2021/12/29 08:56:44;;;;;;;121.85;21.20;;;;;;;2.97;100.00;97224.84;5090779;28;20028;-75
2021/12/29 08:59:12;;;;;;;56.08;19.25;;;;;;;3.05;100.00;97227.03;5090641;28;20468;-76
2021/12/29 09:01:38;;;;;;;42.42;18.83;;;;;;;3.14;100.00;97228.13;5090718;28;20175;-76
2021/12/29 09:04:03;;;;;;;81.10;18.88;;;;;;;3.09;100.00;97227.31;5090665;28;20535;-77
2021/12/29 09:06:29;;;;;;;90.82;18.42;;;;;;;3.10;100.00;97223.53;5090696;28;20032;-76
2021/12/29 09:08:54;;;;;;;85.80;19.48;;;;;;;3.15;100.00;97232.47;5092315;28;20365;-75
2021/12/29 09:11:20;;;;;;;76.28;18.27;;;;;;;3.20;100.00;97239.75;5091093;28;20028;-76
2021/12/29 09:13:45;;;;;;;87.55;20.38;;;;;;;3.36;100.00;97221.69;5090581;28;20031;-76
2021/12/29 09:16:11;;;;;;;82.82;19.02;;;;;;;3.38;100.00;97231.19;5089154;28;20440;-76
2021/12/29 09:18:36;;;;;;;61.83;19.13;;;;;;;3.54;100.00;97242.84;5090602;28;20020;-75
2021/12/29 09:21:12;;;;;;;78.88;21.05;;;;;;;3.31;100.00;97246.00;5090802;28;20447;-72
2021/12/29 09:23:38;;;;;;;;;;;;;;;3.40;100.00;97244.41;5096522;28;20063;-76
2021/12/29 09:26:05;;;;;;;57.15;19.98;;;;;;;3.65;100.00;97241.75;5106358;28;19918;-78
2021/12/29 09:28:31;;;;;;;66.63;21.73;;;;;;;3.68;100.00;97257.44;5107863;28;20032;-77
2021/12/29 09:30:59;;;;;;;82.13;23.27;;;;;;;3.56;100.00;97263.09;5107436;28;20016;-76
2021/12/29 09:33:25;;;;;;;113.75;24.17;;;;;;;3.68;100.00;97257.44;5110692;28;20407;-76
2021/12/29 09:35:55;;;;;;;58.97;20.98;;;;;;;3.68;100.00;97247.44;5112273;28;20024;-76
2021/12/29 09:38:20;;;;;;;86.93;24.77;;;;;;;3.58;100.00;97227.69;5112290;28;20076;-75
2021/12/29 09:40:47;;;;;;;75.38;26.30;;;;;;;3.91;100.00;97248.00;5110531;28;20024;-76
2021/12/29 09:43:13;;;;;;;45.28;20.08;;;;;;;3.95;100.00;97251.75;5113705;28;20038;-76
2021/12/29 09:45:40;;;;;;;44.67;17.98;;;;;;;3.99;100.00;97253.69;5108537;28;20032;-75
2021/12/29 09:48:06;;;;;;;55.28;18.80;;;;;;;3.91;100.00;97248.00;5099049;28;20444;-74
2021/12/29 09:50:32;;;;;;;55.53;18.88;;;;;;;3.86;100.00;97254.19;5106841;28;20106;-75
2021/12/29 09:52:58;;;;;;;40.47;16.70;;;;;;;3.93;100.00;97262.88;5114652;28;20127;-76
2021/12/29 09:55:25;;;;;;;50.95;18.05;;;;;;;3.86;100.00;97256.09;5109193;28;20143;-75
2021/12/29 09:57:54;;;;;;;49.08;18.40;;;;;;;3.97;100.00;97242.31;5110986;28;20421;-77
2021/12/29 10:00:33;;;;;;;56.38;20.45;;;;;;;4.02;100.00;97245.00;5110073;28;20030;-75
2021/12/29 10:03:01;;;;;;;41.55;17.08;;;;;;;4.16;100.00;97238.00;5111413;28;20031;-76
2021/12/29 10:05:28;;;;;;;43.45;18.70;;;;;;;4.14;100.00;97234.72;5109408;28;20022;-77
2021/12/29 10:07:58;;;;;;;41.90;18.73;;;;;;;3.95;100.00;97233.66;5108290;28;20016;-76
2021/12/29 10:10:23;;;;;;;57.20;19.83;;;;;;;3.92;100.00;97233.38;5112775;28;20034;-74
2021/12/29 10:12:49;;;;;;;54.72;24.70;;;;;;;3.96;100.00;97224.47;5111976;28;20016;-75
2021/12/29 10:15:14;;;;;;;42.30;19.50;;;;;;;4.07;100.00;97227.97;5108849;28;20035;-76
2021/12/29 10:17:40;;;;;;;40.60;19.20;;;;;;;4.16;100.00;97229.88;5105928;28;20384;-77
2021/12/29 10:20:09;;;;;;;38.35;17.55;;;;;;;4.08;100.00;97230.41;5102405;27;20040;-78
2021/12/29 10:22:35;;;;;;;41.97;18.60;;;;;;;4.16;100.00;97243.41;5115077;28;20023;-76
2021/12/29 10:25:24;;;;;;;43.40;19.00;;;;;;;3.96;100.00;97243.41;5112800;28;20028;-76
2021/12/29 10:27:51;;;;;;;40.95;17.67;;;;;;;3.94;100.00;97233.94;5113076;28;20111;-75
2021/12/29 10:30:26;;;;;;;40.55;19.80;;;;;;;3.93;100.00;97243.94;5112844;28;20464;-77
2021/12/29 10:32:59;;;;;;;38.92;18.02;;;;;;;3.88;100.00;97252.06;5105004;28;20028;-75
2021/12/29 10:35:33;;;;;;;38.85;19.00;;;;;;;3.92;100.00;97252.31;5106282;28;20039;-75
2021/12/29 10:38:17;;;;;;;38.90;17.60;;;;;;;4.19;100.00;97252.88;5104788;28;20039;-76
2021/12/29 10:40:44;;;;;;;34.03;16.02;;;;;;;4.35;100.00;97250.94;5098219;28;20027;-76
2021/12/29 10:43:09;;;;;;;37.13;17.77;;;;;;;4.30;100.00;97244.47;5109078;28;20023;-79
2021/12/29 10:45:38;;;;;;;40.28;18.17;;;;;;;4.22;100.00;97244.19;5101551;28;20024;-76
2021/12/29 10:48:21;;;;;;;39.60;17.20;;;;;;;4.17;100.00;97247.72;5103116;28;20020;-76
2021/12/29 10:51:00;;;;;;;32.33;16.42;;;;;;;4.11;100.00;97246.09;5106345;28;20073;-75
2021/12/29 10:53:25;;;;;;;31.77;15.30;;;;;;;4.23;100.00;97254.75;5106026;28;20054;-77
2021/12/29 10:55:51;;;;;;;33.10;14.82;;;;;;;4.25;100.00;97263.41;5106793;28;20543;-75
2021/12/29 10:58:20;;;;;;;37.63;17.15;;;;;;;4.17;100.00;97257.72;5109087;28;20031;-77
2021/12/29 11:00:50;;;;;;;34.05;17.02;;;;;;;4.21;100.00;97259.63;5105609;28;20051;-76
2021/12/29 11:03:21;;;;;;;32.00;16.88;;;;;;;4.36;100.00;97252.56;5111112;28;20042;-76
2021/12/29 11:05:58;;;;;;;33.65;16.42;;;;;;;4.41;100.00;97257.97;5101472;28;20035;-76
2021/12/29 11:08:29;;;;;;;29.73;16.10;;;;;;;4.49;100.00;97257.41;5104022;28;20373;-74
2021/12/29 11:11:02;;;;;;;32.50;16.10;;;;;;;4.52;100.00;97251.44;5105882;28;20027;-75
2021/12/29 11:13:29;;;;;;;28.95;15.25;;;;;;;4.57;100.00;97254.16;5104177;28;20039;-77
2021/12/29 11:15:58;;;;;;;26.90;15.75;;;;;;;4.64;100.00;97263.63;5102705;28;20024;-74
2021/12/29 11:18:25;;;;;;;30.90;16.50;;;;;;;4.63;100.00;97274.72;5099264;28;20030;-75
2021/12/29 11:20:56;;;;;;;25.80;15.52;;;;;;;4.70;100.00;97258.97;5100582;28;20031;-74
2021/12/29 11:23:23;;;;;;;29.23;15.32;;;;;;;4.48;100.00;97256.59;5104085;28;20028;-75